Time;durP1;ratioP1;P1;durP2;ratioP2;P2;SDS_P1;SDS_P2;PMS_P1;PMS_P2;Temp;Humidity;BMP_temperature;BMP_pressure;BME280_temperature;BME280_humidity;BME280_pressure;Samples;Min_cycle;Max_cycle;Signal;HPM_P1;HPM_P2
2023/10/04 00:00:45;;;;;;;20.17;3.20;;;;;;;16.72;86.62;100353.50;5078303;28;20025;-74
2023/10/04 00:03:10;;;;;;;17.25;2.80;;;;;;;16.66;85.99;100347.19;5063608;28;20103;-74
2023/10/04 00:05:36;;;;;;;17.85;3.50;;;;;;;16.87;84.47;100354.56;5089297;28;20090;-73
2023/10/04 00:08:02;;;;;;;13.55;2.33;;;;;;;16.83;84.09;100353.44;5079736;28;20032;-74
2023/10/04 00:10:29;;;;;;;17.60;2.70;;;;;;;16.75;84.35;100356.56;5060398;28;20093;-73
2023/10/04 00:12:55;;;;;;;13.60;2.55;;;;;;;16.68;84.16;100331.44;5075189;28;20396;-73
2023/10/04 00:15:22;;;;;;;15.75;2.20;;;;;;;16.76;84.16;100352.78;5079414;28;20031;-74
2023/10/04 00:17:48;;;;;;;10.48;2.13;;;;;;;16.76;84.27;100350.06;5043849;28;20040;-75
2023/10/04 00:20:17;;;;;;;16.65;2.38;;;;;;;16.96;83.98;100362.28;5061904;28;20555;-74
2023/10/04 00:22:46;;;;;;;10.75;1.92;;;;;;;16.93;84.65;100366.31;5078889;28;20024;-74
2023/10/04 00:25:20;;;;;;;12.02;1.98;;;;;;;16.93;85.18;100366.31;5080520;28;20043;-74
2023/10/04 00:27:46;;;;;;;12.45;2.85;;;;;;;16.76;85.93;100358.22;5061723;28;20078;-75
2023/10/04 00:30:17;;;;;;;19.05;2.90;;;;;;;16.89;86.27;100376.88;5045865;28;20037;-74
2023/10/04 00:32:46;;;;;;;10.27;2.42;;;;;;;16.85;87.00;100364.03;5079771;28;20025;-74
2023/10/04 00:35:17;;;;;;;10.13;1.92;;;;;;;16.76;87.45;100360.13;5079720;28;20071;-74
2023/10/04 00:37:46;;;;;;;16.83;2.78;;;;;;;16.80;86.63;100374.84;5061098;28;20024;-74
2023/10/04 00:40:14;;;;;;;14.30;2.78;;;;;;;16.79;87.96;100367.78;5045085;28;20432;-74
2023/10/04 00:42:40;;;;;;;13.27;2.08;;;;;;;16.45;90.92;100355.03;5062472;28;20035;-74
2023/10/04 00:45:06;;;;;;;23.05;3.38;;;;;;;16.53;92.44;100372.00;5080309;28;20036;-74
2023/10/04 00:47:32;;;;;;;16.98;2.85;;;;;;;16.42;93.75;100379.97;5064836;28;20024;-74
2023/10/04 00:50:07;;;;;;;12.75;2.40;;;;;;;16.35;94.97;100368.44;5081455;28;20056;-75
2023/10/04 00:52:33;;;;;;;;;;;;;;;16.34;94.70;100377.66;5063778;28;20144;-74
2023/10/04 00:54:58;;;;;;;16.60;2.47;;;;;;;16.22;95.30;100385.06;5080596;28;19927;-74
2023/10/04 00:57:25;;;;;;;16.55;2.75;;;;;;;16.34;94.20;100372.25;5043383;28;20043;-74
2023/10/04 00:59:51;;;;;;;19.90;2.45;;;;;;;16.31;94.69;100371.91;5038270;28;20028;-73
2023/10/04 01:02:16;;;;;;;17.20;2.95;;;;;;;16.21;94.84;100359.81;5083593;28;20127;-73
2023/10/04 01:04:41;;;;;;;13.90;2.60;;;;;;;16.36;93.66;100380.16;5067292;28;20028;-74
2023/10/04 01:07:07;;;;;;;12.80;2.28;;;;;;;16.27;93.63;100376.19;5080163;28;20144;-74
2023/10/04 01:09:32;;;;;;;13.65;2.67;;;;;;;16.33;92.86;100377.94;5094739;28;20078;-73
2023/10/04 01:11:58;;;;;;;13.85;1.83;;;;;;;16.45;92.47;100386.78;5077642;28;20037;-73
2023/10/04 01:14:37;;;;;;;12.60;2.20;;;;;;;16.55;92.58;100377.97;5077946;28;20487;-74
2023/10/04 01:17:03;;;;;;;14.13;2.83;;;;;;;16.65;91.57;100387.13;5075104;28;20502;-74
2023/10/04 01:19:28;;;;;;;11.32;2.33;;;;;;;16.47;91.17;100400.13;5077755;28;20031;-74
2023/10/04 01:21:55;;;;;;;14.75;2.58;;;;;;;16.43;89.03;100381.63;5060045;28;20025;-74
2023/10/04 01:24:21;;;;;;;15.52;1.95;;;;;;;16.41;88.54;100382.94;5094541;28;20407;-73
2023/10/04 01:26:46;;;;;;;14.98;2.22;;;;;;;16.49;87.87;100371.66;5059100;28;20028;-73
2023/10/04 01:29:12;;;;;;;11.60;1.95;;;;;;;16.48;88.22;100367.28;5071126;28;20044;-73
2023/10/04 01:31:38;;;;;;;10.73;2.08;;;;;;;16.51;89.13;100376.84;5057600;28;20036;-74
2023/10/04 01:34:05;;;;;;;14.40;2.35;;;;;;;16.40;89.96;100392.97;5042877;28;20043;-74
2023/10/04 01:36:32;;;;;;;14.90;2.08;;;;;;;16.41;88.55;100366.63;5043685;28;20032;-74
2023/10/04 01:38:58;;;;;;;10.50;2.22;;;;;;;16.45;87.50;100368.59;5095470;28;20024;-74
2023/10/04 01:41:25;;;;;;;12.52;2.40;;;;;;;16.43;87.43;100368.03;5064204;28;20134;-73
2023/10/04 01:43:53;;;;;;;12.80;2.13;;;;;;;16.38;87.92;100384.25;5082018;28;20457;-74
2023/10/04 01:46:19;;;;;;;15.18;2.22;;;;;;;16.42;88.62;100379.97;5061942;28;20021;-74
2023/10/04 01:48:44;;;;;;;10.90;1.70;;;;;;;16.47;87.23;100389.28;5079033;28;20102;-74
2023/10/04 01:51:12;;;;;;;8.57;2.03;;;;;;;16.52;85.99;100379.28;5061314;28;20438;-74
2023/10/04 01:53:38;;;;;;;15.27;2.20;;;;;;;16.49;84.85;100396.09;5077436;28;20067;-73
2023/10/04 01:56:05;;;;;;;11.35;1.83;;;;;;;16.44;83.90;100390.59;5077276;28;20037;-73
2023/10/04 01:58:31;;;;;;;14.90;2.58;;;;;;;16.60;83.77;100387.03;5077756;28;20037;-73
2023/10/04 02:00:57;;;;;;;16.27;2.60;;;;;;;16.67;84.72;100397.72;5093586;28;20589;-74
2023/10/04 02:03:23;;;;;;;12.45;1.75;;;;;;;16.62;85.26;100386.78;5060333;28;20032;-73
2023/10/04 02:05:50;;;;;;;15.68;2.53;;;;;;;16.59;87.03;100412.56;5078050;28;20060;-74
2023/10/04 02:08:16;;;;;;;8.85;1.73;;;;;;;16.45;87.16;100398.47;5096109;28;20040;-74
2023/10/04 02:10:41;;;;;;;14.52;2.45;;;;;;;16.60;85.75;100402.50;5046269;28;20636;-73
2023/10/04 02:13:08;;;;;;;8.18;1.58;;;;;;;16.50;84.82;100386.06;5079212;28;20399;-73
2023/10/04 02:15:34;;;;;;;13.82;2.08;;;;;;;16.39;83.95;100385.91;5062802;28;20600;-74
2023/10/04 02:18:01;;;;;;;12.13;2.00;;;;;;;16.29;84.09;100347.75;5082081;28;20107;-74
2023/10/04 02:20:33;;;;;;;9.15;1.85;;;;;;;16.63;84.40;100396.59;5062954;28;20486;-75
2023/10/04 02:22:59;;;;;;;15.93;2.22;;;;;;;16.47;84.66;100352.06;5063575;28;20036;-74
2023/10/04 02:25:25;;;;;;;11.70;1.85;;;;;;;16.40;86.08;100390.25;5046593;28;20036;-74
2023/10/04 02:27:52;;;;;;;15.10;2.38;;;;;;;16.53;85.06;100407.28;5078743;28;20036;-73
2023/10/04 02:30:23;;;;;;;11.93;2.13;;;;;;;16.45;86.08;100392.22;5060631;28;20088;-73
2023/10/04 02:32:50;;;;;;;15.05;2.10;;;;;;;16.56;86.22;100401.38;5043946;28;20032;-74
2023/10/04 02:35:27;;;;;;;13.55;2.80;;;;;;;16.43;86.32;100391.66;5077654;28;20037;-74
2023/10/04 02:37:55;;;;;;;13.00;2.08;;;;;;;16.55;85.91;100391.56;5060782;28;20024;-74
2023/10/04 02:40:27;;;;;;;15.68;2.70;;;;;;;16.57;86.68;100405.72;5059870;28;20120;-73
2023/10/04 02:42:57;;;;;;;16.70;2.47;;;;;;;16.59;87.22;100433.47;5077362;28;20089;-74
2023/10/04 02:45:24;;;;;;;13.00;2.70;;;;;;;16.66;87.05;100409.66;5077301;28;20032;-74
2023/10/04 02:47:52;;;;;;;19.77;2.75;;;;;;;16.69;87.39;100398.31;5079028;28;20351;-74
2023/10/04 02:50:19;;;;;;;19.58;2.85;;;;;;;16.68;87.33;100400.19;5045603;28;20029;-74
2023/10/04 02:52:50;;;;;;;14.20;2.33;;;;;;;16.61;88.36;100410.41;5061241;28;20048;-74
2023/10/04 02:55:17;;;;;;;14.82;2.25;;;;;;;16.53;88.74;100407.28;5079476;28;20032;-73
2023/10/04 02:57:46;;;;;;;17.40;2.45;;;;;;;16.52;87.65;100403.72;5061738;28;20587;-73
2023/10/04 03:00:16;;;;;;;12.95;2.40;;;;;;;16.60;87.18;100406.03;5061193;28;20044;-74
2023/10/04 03:02:50;;;;;;;14.50;2.60;;;;;;;16.62;86.72;100406.63;5059182;28;20028;-73
2023/10/04 03:05:18;;;;;;;15.50;2.80;;;;;;;16.55;87.67;100408.66;5073483;28;20024;-73
2023/10/04 03:07:47;;;;;;;14.90;2.30;;;;;;;16.71;87.29;100417.06;5077684;28;20418;-73
2023/10/04 03:10:14;;;;;;;21.23;2.45;;;;;;;16.66;87.93;100406.97;5094758;28;20089;-74
2023/10/04 03:12:41;;;;;;;16.77;2.45;;;;;;;16.55;87.79;100419.53;5055301;28;20051;-73
2023/10/04 03:15:07;;;;;;;10.40;2.03;;;;;;;16.62;85.89;100424.81;5059794;28;20033;-73
2023/10/04 03:17:33;;;;;;;10.73;2.22;;;;;;;16.61;84.81;100420.44;5043953;28;20025;-74
2023/10/04 03:20:00;;;;;;;7.28;1.30;;;;;;;16.44;82.89;100407.69;5076662;28;20097;-74
2023/10/04 03:22:26;;;;;;;11.43;1.95;;;;;;;16.54;82.29;100414.38;5076636;28;20055;-73
2023/10/04 03:24:52;;;;;;;12.70;2.10;;;;;;;16.85;81.43;100419.22;5080938;28;20024;-73
2023/10/04 03:27:21;;;;;;;15.63;2.22;;;;;;;16.72;81.34;100421.41;5061881;28;20020;-73
2023/10/04 03:29:51;;;;;;;10.60;1.42;;;;;;;16.61;80.56;100431.31;5060751;28;20024;-73
2023/10/04 03:32:18;;;;;;;10.55;2.20;;;;;;;16.54;80.23;100414.38;5079369;28;20119;-73
2023/10/04 03:34:44;;;;;;;17.73;2.75;;;;;;;16.64;81.43;100439.78;5096103;28;20028;-73
2023/10/04 03:37:13;;;;;;;12.77;2.83;;;;;;;16.61;82.49;100432.13;5064955;28;20028;-73
2023/10/04 03:39:39;;;;;;;11.20;1.95;;;;;;;16.55;82.66;100432.28;5060943;28;20088;-73
2023/10/04 03:42:05;;;;;;;16.10;2.53;;;;;;;16.68;82.33;100437.41;5078570;28;20029;-73
2023/10/04 03:44:31;;;;;;;25.80;3.05;;;;;;;16.66;83.00;100431.41;5060753;28;20028;-73
2023/10/04 03:46:57;;;;;;;11.38;2.45;;;;;;;16.63;82.13;100431.91;5060809;28;20487;-73
2023/10/04 03:49:23;;;;;;;18.02;2.45;;;;;;;16.68;82.48;100427.34;5060358;28;20020;-73
2023/10/04 03:51:53;;;;;;;14.35;2.38;;;;;;;16.66;82.62;100432.22;5078597;28;20124;-72
2023/10/04 03:54:19;;;;;;;15.77;2.55;;;;;;;16.72;81.46;100437.72;5060502;28;20099;-73
2023/10/04 03:56:44;;;;;;;14.43;2.70;;;;;;;16.55;82.05;100418.72;5059984;28;20131;-73
2023/10/04 03:59:11;;;;;;;13.23;2.30;;;;;;;16.52;81.87;100401.00;5077789;28;20056;-73
2023/10/04 04:01:37;;;;;;;9.32;1.67;;;;;;;16.40;80.45;100430.19;5059601;28;20403;-73
2023/10/04 04:04:14;;;;;;;17.02;3.10;;;;;;;16.47;79.17;100430.84;5058632;28;20105;-72
2023/10/04 04:06:39;;;;;;;12.93;2.28;;;;;;;16.42;79.08;100423.44;5075100;28;20045;-73
2023/10/04 04:09:08;;;;;;;13.10;2.50;;;;;;;16.42;80.56;100445.16;5077376;28;20029;-73
2023/10/04 04:11:35;;;;;;;15.43;2.90;;;;;;;16.56;80.82;100440.22;5078154;28;20020;-74
2023/10/04 04:14:00;;;;;;;8.80;2.28;;;;;;;16.56;81.23;100450.25;5062085;28;20511;-73
2023/10/04 04:16:26;;;;;;;14.90;2.42;;;;;;;16.35;77.17;100447.19;5043513;28;20056;-73
2023/10/04 04:18:54;;;;;;;11.98;2.25;;;;;;;16.41;75.12;100448.09;5078604;28;20087;-73
2023/10/04 04:21:20;;;;;;;14.70;2.45;;;;;;;16.19;76.60;100410.00;5073880;28;20058;-73
2023/10/04 04:23:46;;;;;;;14.52;2.10;;;;;;;16.53;76.21;100454.28;5076466;28;20441;-72
2023/10/04 04:26:11;;;;;;;13.40;2.30;;;;;;;16.28;76.65;100454.69;5080840;28;20017;-71
2023/10/04 04:28:41;;;;;;;13.82;2.40;;;;;;;16.30;76.08;100430.00;5080466;28;20028;-71
2023/10/04 04:31:14;;;;;;;11.57;2.92;;;;;;;16.30;75.63;100455.25;5061842;28;20029;-72
2023/10/04 04:33:40;;;;;;;12.80;2.85;;;;;;;16.34;73.74;100442.84;5079585;28;20502;-73
2023/10/04 04:36:10;;;;;;;12.48;2.25;;;;;;;16.24;72.59;100434.53;5078693;28;20033;-73
2023/10/04 04:38:40;;;;;;;14.18;2.33;;;;;;;16.38;73.87;100460.28;5075028;28;20487;-72
2023/10/04 04:41:12;;;;;;;13.00;2.53;;;;;;;16.32;73.70;100442.25;5071928;28;20105;-72
2023/10/04 04:43:38;;;;;;;11.98;1.98;;;;;;;16.23;74.92;100460.03;5074487;28;20043;-71
2023/10/04 04:46:12;;;;;;;15.65;2.20;;;;;;;16.33;74.46;100453.97;5077389;28;20033;-72
2023/10/04 04:48:38;;;;;;;15.10;2.50;;;;;;;16.34;73.79;100452.88;5078916;28;20032;-72
2023/10/04 04:53:36;;;;;;;18.75;2.88;;;;;;;16.41;73.70;100454.34;5079553;28;20119;-72
2023/10/04 04:56:02;;;;;;;14.32;2.92;;;;;;;16.44;75.25;100450.34;5077637;28;20107;-72
2023/10/04 04:58:28;;;;;;;15.43;2.63;;;;;;;16.37;76.02;100447.78;5043076;28;20123;-74
2023/10/04 05:01:01;;;;;;;11.23;2.03;;;;;;;16.19;75.36;100442.56;5060465;28;20229;-73
2023/10/04 05:03:27;;;;;;;18.30;3.05;;;;;;;16.25;74.67;100466.03;5077689;28;20078;-74
2023/10/04 05:05:56;;;;;;;13.15;2.90;;;;;;;16.44;74.94;100475.59;5092984;28;20029;-74
2023/10/04 05:08:22;;;;;;;9.05;1.95;;;;;;;16.28;73.94;100487.25;5079298;28;20035;-74
2023/10/04 05:10:50;;;;;;;15.85;2.40;;;;;;;16.32;73.25;100479.44;5080298;28;20609;-74
2023/10/04 05:13:20;;;;;;;7.53;1.63;;;;;;;16.10;73.58;100477.44;5064421;28;20036;-74
2023/10/04 05:15:45;;;;;;;16.65;2.33;;;;;;;16.14;73.11;100473.16;5085673;28;20021;-75
2023/10/04 05:18:21;;;;;;;21.48;3.72;;;;;;;16.27;73.24;100493.75;5068221;28;20032;-74
2023/10/04 05:20:54;;;;;;;16.42;3.15;;;;;;;16.19;74.68;100478.72;5049522;28;20060;-74
2023/10/04 05:23:22;;;;;;;18.02;2.90;;;;;;;16.25;74.99;100485.03;5078053;28;20048;-75
2023/10/04 05:25:52;;;;;;;17.05;3.42;;;;;;;16.08;74.24;100495.84;5080975;28;20076;-74
2023/10/04 05:28:18;;;;;;;15.43;2.78;;;;;;;16.24;73.58;100491.53;5066821;28;20058;-75
2023/10/04 05:30:45;;;;;;;9.80;1.98;;;;;;;16.12;72.25;100491.56;5065746;28;20043;-74
2023/10/04 05:33:15;;;;;;;15.30;2.83;;;;;;;16.15;72.80;100482.13;5065580;28;20062;-75
2023/10/04 05:35:42;;;;;;;16.50;2.83;;;;;;;16.33;74.40;100492.78;5065973;28;20111;-75
2023/10/04 05:38:08;;;;;;;10.00;2.30;;;;;;;16.17;74.18;100488.16;5083774;28;20572;-75
2023/10/04 05:40:38;;;;;;;19.65;3.35;;;;;;;16.20;73.38;100491.19;5084083;28;20040;-74
2023/10/04 05:43:05;;;;;;;16.95;3.13;;;;;;;16.26;73.33;100499.41;5065657;28;20097;-74
2023/10/04 05:45:32;;;;;;;16.38;2.83;;;;;;;16.26;74.21;100500.28;5066193;28;20518;-75
2023/10/04 05:48:05;;;;;;;18.27;2.97;;;;;;;16.41;74.44;100495.09;5098419;28;20117;-75
2023/10/04 05:50:32;;;;;;;14.73;2.85;;;;;;;16.19;74.96;100514.00;5090608;28;20028;-72
2023/10/04 05:53:01;;;;;;;13.40;2.90;;;;;;;16.24;73.17;100518.69;5077028;28;20047;-71
2023/10/04 05:55:27;;;;;;;17.33;3.47;;;;;;;16.38;72.70;100514.59;5077566;28;20008;-72
2023/10/04 05:57:52;;;;;;;17.27;3.22;;;;;;;16.08;72.36;100495.84;5084913;28;20029;-71
2023/10/04 06:02:51;;;;;;;14.20;2.72;;;;;;;16.25;71.31;100519.50;5081130;28;20033;-71
2023/10/04 06:05:19;;;;;;;14.88;2.38;;;;;;;16.14;71.46;100516.59;5081437;28;20113;-72
2023/10/04 06:07:44;;;;;;;11.82;2.83;;;;;;;16.27;69.94;100534.50;5063360;28;20059;-72
2023/10/04 06:10:12;;;;;;;16.00;3.08;;;;;;;16.34;69.69;100540.59;5064204;28;20467;-72
2023/10/04 06:12:41;;;;;;;9.43;2.22;;;;;;;16.25;70.14;100549.38;5062918;28;20510;-72
2023/10/04 06:15:10;;;;;;;15.98;2.70;;;;;;;16.43;70.25;100554.59;5077216;28;20036;-73
2023/10/04 06:17:42;;;;;;;10.50;2.25;;;;;;;16.27;70.63;100530.94;5060223;28;20031;-73
2023/10/04 06:20:28;;;;;;;17.50;3.38;;;;;;;16.57;71.21;100558.66;5061525;28;20071;-74
2023/10/04 06:23:01;;;;;;;13.93;2.85;;;;;;;16.53;70.65;100567.53;5098608;28;20031;-73
2023/10/04 06:25:29;;;;;;;12.45;2.58;;;;;;;16.59;69.51;100575.53;5065680;28;20099;-74
2023/10/04 06:27:56;;;;;;;13.13;2.55;;;;;;;16.47;70.14;100571.25;5100846;28;20032;-73
2023/10/04 06:30:24;;;;;;;21.52;5.28;;;;;;;16.53;70.89;100575.69;5067246;28;20036;-74
2023/10/04 06:32:57;;;;;;;40.72;22.30;;;;;;;16.66;70.31;100578.09;5084018;28;20111;-74
2023/10/04 06:35:24;;;;;;;20.80;7.55;;;;;;;16.48;69.63;100578.31;5065834;28;20035;-73
2023/10/04 06:37:52;;;;;;;12.38;2.70;;;;;;;16.51;68.84;100592.22;5067255;28;20032;-73
2023/10/04 06:40:19;;;;;;;13.30;2.58;;;;;;;16.52;69.65;100587.59;5052970;28;20035;-74
2023/10/04 06:42:46;;;;;;;11.05;3.13;;;;;;;16.32;69.08;100578.00;5068491;28;20048;-73
2023/10/04 06:45:13;;;;;;;13.10;2.80;;;;;;;16.49;70.06;100588.09;5087469;28;20032;-75
2023/10/04 06:47:49;;;;;;;15.93;3.00;;;;;;;16.68;71.11;100597.69;5088985;28;20051;-75
2023/10/04 06:50:18;;;;;;;12.00;2.30;;;;;;;16.61;68.98;100595.13;5087943;28;20047;-76
2023/10/04 06:52:48;;;;;;;10.50;2.30;;;;;;;16.58;68.13;100608.38;5069959;28;20024;-74
2023/10/04 06:55:15;;;;;;;10.85;2.25;;;;;;;16.58;67.01;100614.63;5070354;28;20029;-74
2023/10/04 06:57:41;;;;;;;9.13;2.08;;;;;;;16.62;67.22;100602.22;5071270;28;20028;-73
2023/10/04 07:00:15;;;;;;;13.27;2.60;;;;;;;16.83;67.97;100602.59;5091683;28;20115;-74
2023/10/04 07:02:57;;;;;;;9.23;2.20;;;;;;;16.71;68.66;100615.41;5089236;28;20044;-75
2023/10/04 07:05:26;;;;;;;11.77;1.98;;;;;;;16.79;69.04;100629.44;5071664;28;20024;-75
2023/10/04 07:07:53;;;;;;;9.27;2.63;;;;;;;16.81;67.88;100621.84;5071861;28;20057;-74
2023/10/04 07:10:20;;;;;;;10.40;2.00;;;;;;;16.80;66.88;100633.81;5071505;28;20102;-75
2023/10/04 07:12:47;;;;;;;10.25;2.08;;;;;;;16.86;67.05;100634.72;5062644;28;20039;-73
2023/10/04 07:15:14;;;;;;;14.70;2.42;;;;;;;16.78;68.35;100638.66;5065743;28;20046;-74
2023/10/04 07:17:40;;;;;;;11.23;2.30;;;;;;;16.97;69.33;100655.56;5088227;28;20025;-74
2023/10/04 07:20:19;;;;;;;10.50;1.92;;;;;;;16.95;69.00;100651.44;5053411;28;20024;-75
2023/10/04 07:22:47;;;;;;;17.33;2.65;;;;;;;16.98;68.49;100659.94;5053500;28;20089;-74
2023/10/04 07:25:14;;;;;;;8.35;2.15;;;;;;;16.83;68.43;100662.41;5066482;28;20028;-73
2023/10/04 07:27:45;;;;;;;10.95;1.90;;;;;;;16.87;66.29;100658.94;5088623;28;20028;-73
2023/10/04 07:30:12;;;;;;;7.10;1.63;;;;;;;16.87;66.54;100664.38;5069803;28;20031;-74
2023/10/04 07:32:42;;;;;;;14.02;2.80;;;;;;;17.18;67.45;100675.78;5071860;28;20020;-74
2023/10/04 07:35:20;;;;;;;12.32;2.45;;;;;;;17.13;69.06;100665.66;5054635;28;20035;-74
2023/10/04 07:37:49;;;;;;;15.95;3.20;;;;;;;17.19;70.43;100669.28;5082690;28;20558;-74
2023/10/04 07:40:16;;;;;;;9.20;2.42;;;;;;;16.83;69.22;100655.06;5082715;28;20112;-75
2023/10/04 07:42:45;;;;;;;12.63;2.45;;;;;;;16.98;68.51;100670.81;5081419;28;20155;-74
2023/10/04 07:45:12;;;;;;;14.27;2.35;;;;;;;17.06;68.26;100661.44;5080884;28;20021;-73
2023/10/04 07:47:41;;;;;;;9.90;2.15;;;;;;;17.06;67.47;100683.19;5078761;28;20395;-73
2023/10/04 07:50:11;;;;;;;12.93;2.67;;;;;;;17.14;67.69;100686.31;5062668;28;20024;-72
2023/10/04 07:52:42;;;;;;;13.18;2.97;;;;;;;17.26;68.59;100683.53;5060487;28;20020;-74
2023/10/04 07:55:14;;;;;;;15.98;2.60;;;;;;;17.12;69.61;100683.03;5078328;28;20040;-73
2023/10/04 07:57:42;;;;;;;19.85;3.80;;;;;;;17.28;70.66;100692.25;5029047;28;20399;-73
2023/10/04 08:00:14;;;;;;;16.75;3.25;;;;;;;17.21;71.25;100702.47;5043912;28;20115;-73
2023/10/04 08:02:49;;;;;;;17.90;2.60;;;;;;;17.19;70.16;100699.19;5061314;28;20024;-74
2023/10/04 08:05:23;;;;;;;11.75;2.35;;;;;;;17.20;69.24;100711.72;5061615;28;20021;-72
2023/10/04 08:07:56;;;;;;;12.52;2.67;;;;;;;17.10;69.28;100704.19;5061732;28;20059;-73
2023/10/04 08:10:25;;;;;;;12.73;2.33;;;;;;;17.14;68.12;100713.50;5083143;28;20063;-73
2023/10/04 08:12:55;;;;;;;9.88;1.73;;;;;;;17.05;65.87;100704.13;5050858;28;20100;-72
2023/10/04 08:15:22;;;;;;;13.25;2.50;;;;;;;17.22;66.08;100704.13;5070908;28;20028;-72
2023/10/04 08:17:48;;;;;;;11.52;2.30;;;;;;;17.34;66.08;100721.19;5089922;28;20024;-73
2023/10/04 08:20:14;;;;;;;13.60;2.58;;;;;;;17.31;65.78;100715.41;5071898;28;20031;-72
2023/10/04 08:22:41;;;;;;;16.52;2.80;;;;;;;17.43;67.07;100735.22;5071869;28;20100;-72
2023/10/04 08:25:08;;;;;;;10.13;1.88;;;;;;;17.27;64.80;100715.09;5071617;28;20562;-74
2023/10/04 08:27:34;;;;;;;14.98;2.80;;;;;;;17.23;64.79;100724.00;5088712;28;20096;-74
2023/10/04 08:30:03;;;;;;;11.85;2.75;;;;;;;17.42;64.72;100755.34;5072592;28;20059;-76
2023/10/04 08:32:29;;;;;;;12.05;2.50;;;;;;;17.02;67.00;100720.06;5088965;28;20028;-74
2023/10/04 08:34:55;;;;;;;11.35;2.75;;;;;;;16.94;68.52;100745.75;5071183;28;20084;-74
2023/10/04 08:37:20;;;;;;;12.38;2.72;;;;;;;16.98;68.02;100740.66;5065210;28;20119;-73
2023/10/04 08:39:46;;;;;;;11.02;2.42;;;;;;;17.17;66.53;100757.59;5061391;28;20043;-73
2023/10/04 08:42:12;;;;;;;17.88;2.83;;;;;;;17.04;68.36;100745.94;5048133;28;20029;-73
2023/10/04 08:44:38;;;;;;;14.90;2.83;;;;;;;17.30;68.08;100743.69;5066415;28;20032;-73
2023/10/04 08:47:08;;;;;;;11.70;2.25;;;;;;;17.09;68.46;100750.66;5067003;28;20045;-73
2023/10/04 08:49:50;;;;;;;12.13;2.58;;;;;;;17.06;67.81;100751.16;5067427;28;20027;-74
2023/10/04 08:52:35;;;;;;;15.00;2.75;;;;;;;17.01;67.34;100734.72;5062963;28;20431;-73
2023/10/04 08:55:06;;;;;;;9.23;1.98;;;;;;;17.14;66.15;100750.75;5053292;28;20088;-74
2023/10/04 08:57:40;;;;;;;8.77;1.90;;;;;;;17.25;65.97;100747.16;5048826;28;20046;-74
2023/10/04 09:00:18;;;;;;;13.53;2.50;;;;;;;17.18;65.30;100754.63;5091080;28;20054;-72
2023/10/04 09:02:47;;;;;;;6.93;1.75;;;;;;;16.89;66.08;100748.41;5069151;28;20024;-73
2023/10/04 09:05:17;;;;;;;13.55;2.47;;;;;;;17.36;66.12;100769.91;5087429;28;20021;-73
2023/10/04 09:07:43;;;;;;;13.40;2.25;;;;;;;17.16;65.53;100756.78;5086102;28;20060;-73
2023/10/04 09:10:15;;;;;;;8.40;2.15;;;;;;;17.12;64.39;100771.94;5087157;28;20029;-74
2023/10/04 09:12:43;;;;;;;12.45;2.75;;;;;;;16.90;63.33;100761.72;5089423;28;20040;-74
2023/10/04 09:15:13;;;;;;;11.52;2.35;;;;;;;16.79;63.98;100759.88;5053465;28;20052;-73
2023/10/04 09:17:47;;;;;;;14.70;2.53;;;;;;;16.66;66.25;100776.44;5086117;28;20025;-73
2023/10/04 09:20:15;;;;;;;14.93;2.40;;;;;;;16.80;67.11;100780.56;5088993;28;20070;-74
2023/10/04 09:22:41;;;;;;;10.95;2.00;;;;;;;16.77;66.43;100767.44;5052698;28;20032;-73
2023/10/04 09:25:07;;;;;;;14.40;2.60;;;;;;;16.78;66.47;100765.53;5043934;28;20023;-74
2023/10/04 09:27:32;;;;;;;7.60;1.92;;;;;;;16.82;66.58;100781.16;5076065;28;20025;-74
2023/10/04 09:29:59;;;;;;;9.52;1.90;;;;;;;17.06;67.28;100800.91;5060109;28;20518;-74
2023/10/04 09:32:40;;;;;;;12.10;2.35;;;;;;;16.75;67.65;100796.75;5068447;28;20525;-74
2023/10/04 09:35:06;;;;;;;10.70;2.28;;;;;;;16.87;67.41;100780.41;5051950;28;20040;-74
2023/10/04 09:37:31;;;;;;;14.23;3.15;;;;;;;17.46;65.75;100793.75;5088770;28;20029;-74
2023/10/04 09:40:08;;;;;;;14.73;2.60;;;;;;;17.42;65.35;100796.16;5071496;28;20025;-74
2023/10/04 09:42:53;;;;;;;14.30;2.90;;;;;;;17.49;65.94;100809.59;5085284;28;20342;-74
2023/10/04 09:45:26;;;;;;;11.50;2.38;;;;;;;17.30;65.87;100823.38;5060154;28;20031;-74
2023/10/04 09:47:55;;;;;;;17.67;3.08;;;;;;;17.23;65.54;100800.97;5064208;28;20387;-74
2023/10/04 09:50:26;;;;;;;16.17;3.10;;;;;;;17.33;65.25;100809.31;5066475;28;20029;-74
2023/10/04 09:52:53;;;;;;;8.38;2.17;;;;;;;17.31;64.01;100803.28;5064303;28;20111;-74
2023/10/04 09:55:22;;;;;;;12.43;2.55;;;;;;;17.45;64.35;100819.28;5062190;28;20106;-73
2023/10/04 09:57:48;;;;;;;9.52;2.05;;;;;;;17.33;63.89;100825.63;5066952;28;20021;-73
2023/10/04 10:00:18;;;;;;;8.85;2.08;;;;;;;17.07;64.65;100805.28;5089711;28;20016;-73
2023/10/04 10:02:48;;;;;;;14.48;3.00;;;;;;;17.51;65.10;100827.31;5073391;28;20017;-73
2023/10/04 10:05:34;;;;;;;19.92;3.13;;;;;;;17.61;64.74;100823.94;5056108;28;20034;-73
2023/10/04 10:08:06;;;;;;;16.83;2.88;;;;;;;17.61;63.52;100829.38;5090429;28;20068;-73
2023/10/04 10:10:41;;;;;;;15.90;2.85;;;;;;;17.66;63.42;100842.28;5073903;28;20035;-73
2023/10/04 10:13:07;;;;;;;;;;;;;;;17.61;62.91;100835.66;5073026;28;20036;-74
2023/10/04 10:15:34;;;;;;;16.63;2.92;;;;;;;17.58;62.97;100832.59;5091594;28;19916;-74
2023/10/04 10:18:00;;;;;;;11.80;2.47;;;;;;;17.59;63.39;100854.13;5074002;28;20024;-74
2023/10/04 10:20:26;;;;;;;17.63;2.47;;;;;;;17.36;63.47;100841.47;5056608;28;20029;-73
2023/10/04 10:22:58;;;;;;;22.50;3.55;;;;;;;17.65;64.65;100851.47;5059055;28;20126;-74
2023/10/04 10:25:25;;;;;;;17.42;3.00;;;;;;;17.67;63.89;100855.63;5087175;28;20081;-74
2023/10/04 10:27:55;;;;;;;9.40;2.33;;;;;;;17.35;63.53;100847.97;5088348;28;20099;-74
2023/10/04 10:30:21;;;;;;;14.40;2.45;;;;;;;17.41;63.41;100850.78;5071699;28;20479;-77
2023/10/04 10:32:56;;;;;;;12.57;2.45;;;;;;;17.58;62.32;100855.22;5051483;28;20050;-76
2023/10/04 10:35:52;;;;;;;13.13;2.28;;;;;;;17.43;61.41;100857.63;5070783;28;20032;-75
2023/10/04 10:38:48;;;;;;;15.02;2.45;;;;;;;17.74;60.89;100867.16;5070837;28;20284;-75
2023/10/04 10:41:28;;;;;;;12.70;2.47;;;;;;;17.37;61.44;100858.59;5041044;28;20490;-74
2023/10/04 10:44:19;;;;;;;16.60;3.28;;;;;;;17.42;62.37;100853.28;5073474;28;20054;-74
2023/10/04 10:46:55;;;;;;;13.05;2.20;;;;;;;17.35;62.61;100866.16;5087747;28;20024;-73
2023/10/04 10:49:56;;;;;;;17.30;2.90;;;;;;;17.59;61.92;100877.78;5072568;28;20036;-73
2023/10/04 10:52:26;;;;;;;16.55;2.85;;;;;;;17.55;62.25;100876.63;5090518;28;20032;-74
2023/10/04 10:54:56;;;;;;;10.60;2.47;;;;;;;17.66;59.68;100862.13;5073892;28;20025;-73
2023/10/04 10:57:29;;;;;;;12.25;2.70;;;;;;;17.52;59.53;100861.63;5091084;28;20063;-73
2023/10/04 10:59:57;;;;;;;15.77;3.13;;;;;;;17.61;60.20;100875.63;5089979;28;20035;-73
2023/10/04 11:02:24;;;;;;;15.45;2.88;;;;;;;17.43;61.34;100863.06;5064730;28;20064;-74
2023/10/04 11:04:51;;;;;;;23.42;3.88;;;;;;;17.29;62.78;100867.97;5061342;28;20025;-75
2023/10/04 11:07:19;;;;;;;15.13;2.70;;;;;;;17.44;64.18;100870.16;5062884;28;20085;-74
2023/10/04 11:09:53;;;;;;;9.65;2.45;;;;;;;17.42;64.00;100885.91;5063970;28;20100;-73
2023/10/04 11:12:21;;;;;;;21.30;4.00;;;;;;;17.54;64.15;100874.97;5061009;28;20022;-74
2023/10/04 11:14:49;;;;;;;13.15;2.95;;;;;;;17.42;64.30;100876.91;5059205;28;20032;-75
2023/10/04 11:17:15;;;;;;;13.88;2.35;;;;;;;17.50;64.42;100890.13;5058505;28;20056;-73
2023/10/04 11:19:41;;;;;;;16.60;2.88;;;;;;;17.52;65.31;100882.56;5045889;28;20028;-73
2023/10/04 11:22:08;;;;;;;15.77;3.10;;;;;;;17.48;63.97;100865.91;5064074;28;20052;-75
2023/10/04 11:24:36;;;;;;;12.30;2.63;;;;;;;17.67;60.88;100887.44;5063500;28;20024;-75
2023/10/04 11:27:03;;;;;;;11.13;2.63;;;;;;;17.55;60.54;100887.53;5080960;28;20020;-75
2023/10/04 11:29:30;;;;;;;10.02;2.70;;;;;;;17.70;59.57;100881.53;5063057;28;20115;-76
2023/10/04 11:31:58;;;;;;;14.30;2.58;;;;;;;17.83;59.82;100886.69;5062904;28;20101;-76